메인 페이지
METAR-TAF:

METAR-TAF

공항 :

시알코트 국제공항

시알코트, 파키스탄

위도: 32-32N, 경도: 74-22E, 고도: 255m

현재 날씨관측

예보는 43분 전, 23:00시(UTC)에 발표되었습니다.
북서4kt
온도 15°C
습도 88%
기압 1013 hPa
시정: 4000m
고도 10000ft 상공 구름 보통
연기

METAR: OPST 312300Z 31004KT 4000 FU SCT100 15/13 Q1013 NOSIG RH89

시각: 04:43 (23:43 UTC)

예보

예보는 1 시간 58분 전, 21:45시(UTC)에 발표되었습니다.
예보 대상 시간: 01일 00시부터 02일 06시까지 (UTC)
북서6kt
시정: 4000m
고도 10000ft 상공 구름 조금
연기

TAF: OPST 312145Z 0100/0206 31006KT 4000 FU FEW100 TX28/0110Z TN15/0101Z

4,000개 이상의 공항 관측 자료 및 예보 (METAR 및 TAF 보고).

지도상에서 검색 가능한 기상관측소가 노란 점과 빨간 점으로 표시되어 있습니다.

기상관측소 명을 보려면 표시 위로 마우스를 이동하세요.

날씨 관측과 예보를 보려면 클릭하세요.

지도 변경 : 확대하려면 엑스 표시가 있는 녹색 버튼, 축소하려면 빼기 표시가 있는 녹색 버튼, 다음 페이지의 지도를 보려면 녹색 화살표를 클릭하세요.


METAR-TAF: